createdAt,value
2023-05-12T00:00:41.518Z,935.2
2023-05-12T00:15:59.898Z,935.2
2023-05-12T00:30:41.615Z,934.8
2023-05-12T00:45:43.568Z,934.6
2023-05-12T01:01:27.211Z,934
2023-05-12T01:16:30.814Z,934
2023-05-12T01:31:31.454Z,934.9
2023-05-12T01:46:29.148Z,934.4
2023-05-12T02:01:29.626Z,934.9
2023-05-12T02:16:39.498Z,934.9
2023-05-12T02:31:31.027Z,934.8
2023-05-12T02:46:33.555Z,934.8
2023-05-12T03:01:32.807Z,935.1
2023-05-12T03:16:33.936Z,935.2
2023-05-12T03:31:46.770Z,935.2
2023-05-12T04:14:43.995Z,935.4
2023-05-12T04:21:09.888Z,935.4
2023-05-12T04:35:44.467Z,935.4
2023-05-12T04:50:43.392Z,935.3
2023-05-12T05:05:47.291Z,935.3
2023-05-12T05:20:59.842Z,935.3
2023-05-12T05:35:45.964Z,935.5
2023-05-12T05:50:46.207Z,935.7
2023-05-12T06:05:49.722Z,935.7
2023-05-12T07:35:54.794Z,935.8
2023-05-12T07:51:09.134Z,930.2
2023-05-12T08:20:59.740Z,930.1
2023-05-12T08:35:58.963Z,929.4
2023-05-12T09:20:36.515Z,929.4
2023-05-12T10:51:06.678Z,929.4
2023-05-12T11:06:10.334Z,929.2
2023-05-12T11:21:05.679Z,929.2
2023-05-12T11:36:34.755Z,929.2
2023-05-12T12:06:07.193Z,929
2023-05-12T12:21:36.985Z,929.2
2023-05-12T12:36:07.838Z,929.1
2023-05-12T12:51:08.584Z,929.1
2023-05-12T13:06:09.732Z,929.1
2023-05-12T13:21:10.381Z,929.1
2023-05-12T13:36:10.284Z,929.1
2023-05-12T13:51:11.153Z,929.1
2023-05-12T14:06:12.075Z,929
2023-05-12T14:21:12.553Z,929
2023-05-12T14:36:13.405Z,929
2023-05-12T14:51:14.073Z,929
2023-05-12T15:06:17.010Z,929.1
2023-05-12T15:21:15.015Z,929.1
2023-05-12T15:36:15.273Z,929.2
2023-05-12T15:51:16.239Z,929.2
2023-05-12T16:06:17.817Z,929.3
2023-05-12T16:21:17.467Z,929.3
2023-05-12T16:36:20.310Z,929.4
2023-05-12T16:51:22.542Z,929.4
2023-05-12T17:06:20.212Z,929.7
2023-05-12T17:21:23.001Z,929.7
2023-05-12T17:36:21.485Z,930.1
2023-05-12T17:51:21.862Z,930.3
2023-05-12T18:06:22.695Z,930.4
2023-05-12T18:21:24.451Z,930.4
2023-05-12T18:36:25.593Z,930.7
2023-05-12T18:51:24.392Z,931.5
2023-05-12T19:06:24.497Z,932.1
2023-05-12T19:21:25.265Z,932.3
2023-05-12T19:36:26.585Z,932.3
2023-05-12T19:51:26.572Z,932.5
2023-05-12T20:06:27.143Z,932.3
2023-05-12T20:21:28.185Z,932.3
2023-05-12T20:36:27.924Z,932.4
2023-05-12T20:51:29.198Z,932.5
2023-05-12T21:06:31.190Z,932.3
2023-05-12T21:21:31.868Z,932.9
2023-05-12T21:36:30.121Z,932.8
2023-05-12T21:51:31.047Z,932.8
2023-05-12T22:00:38.866Z,932.6
2023-05-12T22:15:38.482Z,933.2
2023-05-12T22:30:38.248Z,933.7
2023-05-12T22:45:39.460Z,933.8
2023-05-12T23:00:40.411Z,933.5
2023-05-12T23:15:40.443Z,933.2
2023-05-12T23:30:50.371Z,933.3
2023-05-12T23:45:41.744Z,933.4
